Time;durP1;ratioP1;P1;durP2;ratioP2;P2;SDS_P1;SDS_P2;PMS_P1;PMS_P2;Temp;Humidity;BMP_temperature;BMP_pressure;BME280_temperature;BME280_humidity;BME280_pressure;Samples;Min_cycle;Max_cycle;Signal;HPM_P1;HPM_P2
2021/11/15 00:00:38;;;;;;;67.27;41.53;;;;;;;6.11;79.21;100828.14;1725630;82;21275;-56
2021/11/15 00:03:05;;;;;;;59.83;42.23;;;;;;;6.12;79.20;100825.91;1722277;82;21670;-56
2021/11/15 00:05:32;;;;;;;62.13;40.67;;;;;;;6.12;79.20;100824.58;1726192;82;21100;-56
2021/11/15 00:07:59;;;;;;;65.47;43.97;;;;;;;6.12;79.20;100819.23;1721601;82;21101;-56
2021/11/15 00:10:25;;;;;;;65.77;43.77;;;;;;;6.11;79.16;100815.67;1723226;82;21857;-57
2021/11/15 00:14:40;;;;;;;63.70;40.97;;;;;;;6.12;79.12;100809.87;1788225;78;22657;-56
2021/11/15 00:17:06;;;;;;;54.13;36.90;;;;;;;6.06;79.14;100816.16;1764310;79;21276;-56
2021/11/15 00:19:34;;;;;;;55.70;36.67;;;;;;;6.06;79.10;100818.38;1708713;82;21054;-57
2021/11/15 00:22:04;;;;;;;53.97;36.10;;;;;;;6.07;79.16;100817.94;1704661;83;21029;-57
2021/11/15 00:24:30;;;;;;;59.67;36.57;;;;;;;6.08;79.22;100821.05;1707565;83;21535;-56
2021/11/15 00:26:57;;;;;;;56.20;37.53;;;;;;;6.08;79.19;100823.27;1702927;83;21420;-56
2021/11/15 00:29:23;;;;;;;61.17;40.47;;;;;;;6.10;79.17;100826.38;1704759;83;22186;-57
2021/11/15 00:31:49;;;;;;;60.47;39.97;;;;;;;6.07;79.21;100816.14;1706793;83;21129;-57
2021/11/15 00:34:16;;;;;;;56.03;37.80;;;;;;;6.07;79.26;100820.16;1710672;83;20966;-56
2021/11/15 00:36:42;;;;;;;62.87;43.07;;;;;;;6.07;79.29;100812.59;1717701;81;21007;-56
2021/11/15 00:39:09;;;;;;;58.53;41.90;;;;;;;6.07;79.31;100811.25;1716718;81;20946;-56
2021/11/15 00:41:36;;;;;;;62.73;42.13;;;;;;;6.05;79.33;100816.61;1715542;81;20930;-56
2021/11/15 00:44:02;;;;;;;59.93;40.60;;;;;;;6.04;79.31;100832.21;1708539;81;22572;-56
2021/11/15 00:46:29;;;;;;;60.07;40.83;;;;;;;6.03;79.26;100825.58;1712132;81;21286;-57
2021/11/15 00:48:55;;;;;;;55.37;35.17;;;;;;;6.02;79.30;100819.34;1699169;82;21095;-56
2021/11/15 00:51:28;;;;;;;54.30;36.17;;;;;;;6.02;79.35;100827.81;1704659;83;21106;-56
2021/11/15 00:53:56;;;;;;;54.60;37.30;;;;;;;6.01;79.34;100832.27;1709537;83;20989;-56
2021/11/15 00:56:22;;;;;;;58.90;39.67;;;;;;;6.00;79.38;100829.16;1710184;83;21840;-56
2021/11/15 00:58:49;;;;;;;58.33;37.73;;;;;;;6.00;79.47;100815.80;1709913;83;20902;-56
2021/11/15 01:01:16;;;;;;;60.37;40.27;;;;;;;5.99;79.54;100807.34;1707313;83;21053;-57
2021/11/15 01:03:42;;;;;;;58.90;39.63;;;;;;;6.00;79.62;100812.23;1710321;82;21033;-55
2021/11/15 01:06:09;;;;;;;63.77;43.37;;;;;;;5.99;79.57;100818.03;1709435;83;20958;-56
2021/11/15 01:08:35;;;;;;;52.60;36.13;;;;;;;5.99;79.59;100828.73;1707453;81;21189;-56
2021/11/15 01:11:03;;;;;;;51.97;35.73;;;;;;;5.96;79.52;100833.21;1712531;81;20887;-57
2021/11/15 01:13:30;;;;;;;46.20;32.23;;;;;;;5.92;79.49;100831.05;1701400;82;20912;-56
2021/11/15 01:15:56;;;;;;;49.23;32.10;;;;;;;5.91;79.48;100835.95;1681982;84;20977;-55
2021/11/15 01:18:22;;;;;;;45.57;29.97;;;;;;;5.87;79.56;100824.82;1684632;84;20987;-57
2021/11/15 01:20:49;;;;;;;39.50;27.20;;;;;;;5.88;79.66;100829.75;1684427;84;21092;-56
2021/11/15 01:23:15;;;;;;;42.57;28.90;;;;;;;5.90;79.78;100839.53;1701411;82;21310;-56
2021/11/15 01:25:42;;;;;;;41.20;29.87;;;;;;;5.91;79.74;100838.62;1751245;80;21761;-57
2021/11/15 01:28:08;;;;;;;45.00;32.33;;;;;;;5.89;79.67;100836.41;1746515;80;21467;-57
2021/11/15 01:30:35;;;;;;;53.83;34.63;;;;;;;5.89;79.70;100847.11;1748536;80;20942;-56
2021/11/15 01:33:01;;;;;;;57.20;37.10;;;;;;;5.89;79.74;100854.23;1749571;80;22190;-56
2021/11/15 01:35:27;;;;;;;49.07;34.60;;;;;;;5.86;79.57;100858.27;1747813;80;20892;-56
2021/11/15 01:37:54;;;;;;;53.27;35.13;;;;;;;5.79;79.56;100860.09;1748401;80;20906;-56
2021/11/15 01:40:23;;;;;;;50.07;32.00;;;;;;;5.75;79.61;100854.37;1701216;82;20963;-56
2021/11/15 01:42:50;;;;;;;57.40;36.50;;;;;;;5.75;79.69;100850.81;1752081;80;20887;-56
2021/11/15 01:45:18;;;;;;;57.50;35.60;;;;;;;5.75;79.83;100858.38;1748230;80;21928;-56
2021/11/15 01:47:44;;;;;;;53.03;33.33;;;;;;;5.78;79.92;100859.69;1752617;80;21007;-56
2021/11/15 01:50:15;;;;;;;55.90;36.73;;;;;;;5.81;79.94;100855.62;1745695;80;20880;-56
2021/11/15 01:52:39;;;;;;;60.47;38.53;;;;;;;5.84;79.98;100846.70;1747093;80;20868;-57
2021/11/15 01:55:07;;;;;;;54.47;35.73;;;;;;;5.86;80.00;100854.26;1750067;80;20938;-56
2021/11/15 01:57:34;;;;;;;61.83;40.37;;;;;;;5.87;80.00;100855.55;1747724;80;22055;-57
2021/11/15 02:00:00;;;;;;;59.23;39.00;;;;;;;5.90;80.07;100847.99;1746936;80;21365;-57
2021/11/15 02:02:27;;;;;;;60.07;39.80;;;;;;;5.91;80.04;100845.31;1701162;82;21631;-55
2021/11/15 02:04:57;;;;;;;66.60;41.70;;;;;;;5.93;80.03;100849.30;1722201;80;21602;-57
2021/11/15 02:07:25;;;;;;;64.30;41.40;;;;;;;5.93;80.01;100846.19;1747649;80;20930;-56
2021/11/15 02:09:52;;;;;;;63.37;40.70;;;;;;;5.93;79.96;100855.98;1744861;80;21753;-56
2021/11/15 02:12:19;;;;;;;59.53;38.87;;;;;;;5.94;79.92;100860.43;1748348;80;20965;-56
2021/11/15 02:14:46;;;;;;;57.70;36.30;;;;;;;5.93;79.90;100854.20;1755952;80;21077;-56
2021/11/15 02:17:12;;;;;;;55.17;36.57;;;;;;;5.94;79.88;100855.09;1758871;80;21106;-56
2021/11/15 02:19:39;;;;;;;62.93;37.60;;;;;;;5.93;79.89;100854.20;1753908;80;21089;-56
2021/11/15 02:22:05;;;;;;;56.07;35.97;;;;;;;5.95;79.88;100859.08;1761191;80;21119;-56
2021/11/15 02:24:32;;;;;;;63.17;39.43;;;;;;;5.97;79.94;100849.69;1758284;80;21191;-56
2021/11/15 02:26:58;;;;;;;63.17;39.40;;;;;;;5.97;79.88;100843.89;1757782;80;21481;-57
2021/11/15 02:29:24;;;;;;;56.23;37.03;;;;;;;5.96;79.85;100848.80;1754362;80;21017;-56
2021/11/15 02:31:51;;;;;;;63.47;39.33;;;;;;;5.97;79.88;100849.23;1758013;80;21057;-56
2021/11/15 02:34:17;;;;;;;59.80;39.07;;;;;;;5.96;79.84;100850.58;1755338;80;21105;-56
2021/11/15 02:36:44;;;;;;;59.57;38.80;;;;;;;5.95;79.77;100858.20;1755591;80;21117;-56
2021/11/15 02:39:10;;;;;;;51.40;34.13;;;;;;;5.92;79.70;100853.77;1758122;80;21140;-55
2021/11/15 02:41:37;;;;;;;48.67;33.80;;;;;;;5.91;79.63;100860.00;1756593;80;21069;-57
2021/11/15 02:44:07;;;;;;;50.87;32.63;;;;;;;5.88;79.55;100866.70;1757858;80;21083;-55
2021/11/15 02:46:35;;;;;;;50.17;32.33;;;;;;;5.85;79.65;100873.41;1762398;80;21562;-56
2021/11/15 02:49:03;;;;;;;49.53;33.90;;;;;;;5.84;79.70;100878.31;1758583;80;21008;-56
2021/11/15 02:51:31;;;;;;;51.57;34.77;;;;;;;5.83;79.70;100889.91;1764805;80;20895;-55
2021/11/15 02:53:57;;;;;;;56.23;36.10;;;;;;;5.82;79.78;100893.47;1707156;82;20966;-56
2021/11/15 02:56:24;;;;;;;53.43;36.10;;;;;;;5.83;79.87;100898.37;1763120;80;20982;-56
2021/11/15 02:58:50;;;;;;;54.10;35.70;;;;;;;5.82;79.88;100900.16;1762237;80;21135;-56
2021/11/15 03:01:17;;;;;;;59.10;39.33;;;;;;;5.83;79.84;100908.61;1759648;80;21128;-56
2021/11/15 03:03:44;;;;;;;55.67;36.40;;;;;;;5.81;79.86;100898.37;1760072;80;21084;-57
2021/11/15 03:06:10;;;;;;;52.30;34.70;;;;;;;5.81;79.86;100900.16;1759715;80;21230;-56
2021/11/15 03:08:37;;;;;;;51.03;33.33;;;;;;;5.81;79.94;100900.16;1756949;80;21610;-56
2021/11/15 03:11:05;;;;;;;50.93;33.13;;;;;;;5.81;79.96;100908.18;1763886;79;21386;-55
2021/11/15 03:13:37;;;;;;;55.33;34.50;;;;;;;5.81;79.97;100904.17;1761476;80;20907;-56
2021/11/15 03:16:04;;;;;;;55.67;35.87;;;;;;;5.81;80.03;100910.41;1755226;80;20904;-56
2021/11/15 03:18:33;;;;;;;63.23;42.23;;;;;;;5.80;80.05;100909.96;1753979;80;20891;-56
2021/11/15 03:21:04;;;;;;;68.20;44.13;;;;;;;5.80;80.15;100900.61;1719343;82;21042;-56
2021/11/15 03:23:32;;;;;;;73.60;49.17;;;;;;;5.80;80.20;100907.30;1752348;80;21480;-56
2021/11/15 03:25:59;;;;;;;72.70;47.47;;;;;;;5.82;80.28;100912.17;1755751;80;20966;-56
2021/11/15 03:28:28;;;;;;;72.90;48.50;;;;;;;5.83;80.31;100912.61;1760692;80;20923;-55
2021/11/15 03:31:01;;;;;;;74.13;46.80;;;;;;;5.82;80.32;100908.62;1756533;80;21081;-56
2021/11/15 03:33:29;;;;;;;66.57;40.87;;;;;;;5.81;80.36;100913.08;1753979;80;21085;-56
2021/11/15 03:35:56;;;;;;;74.73;46.13;;;;;;;5.83;80.41;100909.05;1754773;80;21125;-54
2021/11/15 03:38:22;;;;;;;68.37;43.70;;;;;;;5.83;80.45;100909.94;1752719;80;21432;-56
2021/11/15 03:40:48;;;;;;;64.67;40.37;;;;;;;5.83;80.47;100905.94;1752843;80;21451;-56
2021/11/15 03:43:15;;;;;;;67.27;43.23;;;;;;;5.85;80.56;100909.94;1750766;80;21368;-57
2021/11/15 03:45:42;;;;;;;73.00;46.47;;;;;;;5.86;80.55;100911.27;1754671;80;21525;-56
2021/11/15 03:48:10;;;;;;;68.90;48.07;;;;;;;5.87;80.60;100917.01;1748518;79;22846;-55
2021/11/15 03:50:36;;;;;;;72.40;47.17;;;;;;;5.89;80.63;100911.69;1752213;80;21066;-55
2021/11/15 03:53:05;;;;;;;73.83;51.17;;;;;;;5.88;80.58;100916.59;1748744;80;21403;-56
2021/11/15 03:55:32;;;;;;;71.53;45.50;;;;;;;5.86;80.57;100925.95;1749174;80;21082;-56
2021/11/15 03:57:58;;;;;;;70.93;42.80;;;;;;;5.85;80.60;100930.86;1753481;80;21732;-56
2021/11/15 04:00:28;;;;;;;70.80;44.20;;;;;;;5.85;80.63;100928.19;1753223;80;21110;-56
2021/11/15 04:03:00;;;;;;;65.30;42.67;;;;;;;5.84;80.69;100934.88;1753294;80;21057;-56
2021/11/15 04:05:28;;;;;;;71.93;43.87;;;;;;;5.84;80.73;100938.44;1755005;80;21378;-55
2021/11/15 04:07:54;;;;;;;67.00;43.83;;;;;;;5.86;80.78;100935.75;1758490;80;20916;-56
2021/11/15 04:10:28;;;;;;;77.17;49.50;;;;;;;5.87;80.79;100946.88;1753810;80;20918;-57
2021/11/15 04:12:56;;;;;;;71.53;48.17;;;;;;;5.87;80.79;100947.73;1759670;80;21273;-56
2021/11/15 04:15:23;;;;;;;73.77;50.10;;;;;;;5.86;80.74;100953.13;1762256;80;20898;-56
2021/11/15 04:17:50;;;;;;;72.90;47.07;;;;;;;5.84;80.76;100957.59;1762590;80;21359;-55
2021/11/15 04:20:18;;;;;;;65.70;44.47;;;;;;;5.82;80.84;100960.72;1762992;80;21989;-56
2021/11/15 04:22:44;;;;;;;73.13;45.47;;;;;;;5.82;80.86;100962.95;1762736;80;21955;-56
2021/11/15 04:25:10;;;;;;;70.67;46.27;;;;;;;5.80;80.92;100962.06;1763608;80;21550;-57
2021/11/15 04:27:37;;;;;;;75.73;44.47;;;;;;;5.81;81.01;100964.29;1757827;80;20875;-56
2021/11/15 04:30:05;;;;;;;75.10;47.50;;;;;;;5.80;81.06;100970.08;1759169;80;20915;-56
2021/11/15 04:32:31;;;;;;;77.33;47.53;;;;;;;5.84;81.22;100978.97;1764314;80;21014;-56
2021/11/15 04:34:58;;;;;;;80.33;52.97;;;;;;;5.89;81.19;100990.52;1761372;80;21026;-55
2021/11/15 04:37:24;;;;;;;71.97;49.13;;;;;;;5.91;81.23;100984.27;1761775;80;21090;-55
2021/11/15 04:39:53;;;;;;;80.50;48.00;;;;;;;5.92;81.20;100984.70;1762391;80;21442;-56
2021/11/15 04:42:19;;;;;;;84.50;53.00;;;;;;;5.93;81.14;100989.16;1764879;80;20935;-56
2021/11/15 04:44:45;;;;;;;75.83;47.33;;;;;;;5.91;81.15;100987.39;1762982;80;21005;-57
2021/11/15 04:47:11;;;;;;;75.87;46.30;;;;;;;5.91;81.12;100988.28;1761053;80;20931;-55
2021/11/15 04:49:38;;;;;;;68.57;42.73;;;;;;;5.91;80.97;100986.05;1759941;80;21752;-56
2021/11/15 04:52:07;;;;;;;69.50;43.03;;;;;;;5.89;80.99;100986.06;1753606;80;21667;-57
2021/11/15 04:54:34;;;;;;;70.67;46.40;;;;;;;5.93;80.95;100988.27;1763972;80;20984;-55
2021/11/15 04:57:00;;;;;;;68.47;44.70;;;;;;;5.94;80.82;100996.72;1762296;80;21025;-56
2021/11/15 04:59:27;;;;;;;71.20;45.00;;;;;;;5.93;80.67;100991.83;1760101;80;21309;-56
2021/11/15 05:01:53;;;;;;;71.17;45.60;;;;;;;5.92;80.65;101002.53;1757768;80;21158;-56
2021/11/15 05:04:19;;;;;;;72.47;46.37;;;;;;;5.90;80.59;101006.55;1759833;80;21093;-56
2021/11/15 05:06:46;;;;;;;71.20;43.67;;;;;;;5.88;80.61;101007.00;1759125;80;21030;-56
2021/11/15 05:09:13;;;;;;;67.77;41.30;;;;;;;5.87;80.65;101010.53;1757965;80;21034;-56
2021/11/15 05:11:40;;;;;;;65.60;39.63;;;;;;;5.90;80.64;101013.67;1760737;80;21132;-56
2021/11/15 05:14:07;;;;;;;69.27;40.40;;;;;;;5.90;80.62;101015.01;1758919;80;21539;-55
2021/11/15 05:16:33;;;;;;;64.10;37.80;;;;;;;5.90;80.65;101020.35;1749046;80;21377;-56
2021/11/15 05:19:00;;;;;;;69.77;41.13;;;;;;;5.87;80.64;101025.23;1746820;80;21013;-56
2021/11/15 05:21:27;;;;;;;65.43;39.70;;;;;;;5.87;80.68;101027.05;1749360;80;22220;-57
2021/11/15 05:23:54;;;;;;;68.37;40.83;;;;;;;5.86;80.85;101029.28;1749582;80;22269;-56
2021/11/15 05:26:21;;;;;;;66.70;42.07;;;;;;;5.87;80.87;101033.25;1747413;80;22725;-56
2021/11/15 05:28:48;;;;;;;73.23;42.50;;;;;;;5.90;80.87;101035.94;1753146;80;21398;-56
2021/11/15 05:31:14;;;;;;;69.20;40.67;;;;;;;5.91;80.84;101039.50;1757846;79;20990;-56
2021/11/15 05:33:41;;;;;;;72.77;40.00;;;;;;;5.93;80.82;101053.74;1753907;80;21102;-56
2021/11/15 05:36:07;;;;;;;61.60;35.17;;;;;;;5.93;80.60;101053.30;1756764;80;21038;-57
2021/11/15 05:38:34;;;;;;;59.67;33.17;;;;;;;5.88;80.68;101051.09;1749823;80;21033;-56
2021/11/15 05:41:01;;;;;;;54.43;32.97;;;;;;;5.88;80.73;101059.11;1717971;82;21149;-56
2021/11/15 05:43:27;;;;;;;64.57;39.67;;;;;;;5.90;80.75;101069.34;1749760;80;21065;-57
2021/11/15 05:45:53;;;;;;;60.10;36.83;;;;;;;5.91;80.58;101076.91;1748717;80;21101;-56
2021/11/15 05:48:20;;;;;;;62.87;38.73;;;;;;;5.85;80.61;101077.83;1750598;80;21093;-56
2021/11/15 05:50:46;;;;;;;58.43;39.03;;;;;;;5.86;80.79;101074.27;1752561;80;21160;-56
2021/11/15 05:53:15;;;;;;;64.77;41.53;;;;;;;5.89;80.78;101071.58;1753538;79;21002;-56
2021/11/15 05:55:41;;;;;;;65.03;40.90;;;;;;;5.89;80.78;101082.27;1752108;80;22596;-56
2021/11/15 05:58:08;;;;;;;61.53;36.37;;;;;;;5.92;80.68;101082.25;1751898;80;22442;-56
2021/11/15 06:00:35;;;;;;;77.53;47.13;;;;;;;5.93;80.63;101092.49;1752484;80;22115;-56
2021/11/15 06:03:01;;;;;;;60.33;37.03;;;;;;;5.94;80.39;101092.94;1756470;80;21072;-56
2021/11/15 06:05:28;;;;;;;57.03;35.87;;;;;;;5.93;80.45;101093.38;1754917;80;21768;-56
2021/11/15 06:07:54;;;;;;;58.27;35.50;;;;;;;5.98;80.37;101094.66;1757078;80;20926;-55
2021/11/15 06:10:22;;;;;;;57.60;35.83;;;;;;;6.00;80.29;101097.77;1753229;80;21511;-56
2021/11/15 06:12:50;;;;;;;58.20;37.77;;;;;;;6.04;80.18;101099.95;1751529;80;21591;-57
2021/11/15 06:15:18;;;;;;;57.83;38.67;;;;;;;6.04;79.96;101101.28;1753349;80;21132;-57
2021/11/15 06:17:45;;;;;;;58.53;35.47;;;;;;;6.01;79.94;101108.02;1753292;80;21203;-56
2021/11/15 06:20:12;;;;;;;56.07;35.50;;;;;;;6.01;79.88;101109.35;1751266;80;22329;-56
2021/11/15 06:22:39;;;;;;;55.97;35.50;;;;;;;5.99;79.73;101104.02;1754576;80;20962;-57
2021/11/15 06:25:07;;;;;;;52.30;33.73;;;;;;;5.99;79.64;101113.37;1753918;80;21113;-57
2021/11/15 06:27:34;;;;;;;50.13;31.83;;;;;;;5.98;79.60;101112.04;1752209;80;21111;-56
2021/11/15 06:30:00;;;;;;;55.83;35.50;;;;;;;5.99;79.58;101111.14;1755578;80;21306;-56
2021/11/15 06:32:28;;;;;;;48.23;32.37;;;;;;;6.00;79.53;101116.93;1758006;80;20942;-55
2021/11/15 06:34:57;;;;;;;54.90;33.70;;;;;;;6.02;79.47;101119.15;1755466;80;21484;-56
2021/11/15 06:37:22;;;;;;;59.00;36.90;;;;;;;6.04;79.49;101120.89;1754764;80;20984;-56
2021/11/15 06:39:49;;;;;;;52.67;36.43;;;;;;;6.07;79.34;101115.53;1759039;80;21138;-56
2021/11/15 06:42:15;;;;;;;61.47;38.50;;;;;;;6.07;79.22;101126.22;1754731;80;21034;-56
2021/11/15 06:44:43;;;;;;;54.73;35.83;;;;;;;6.07;79.09;101134.69;1750922;80;21117;-56
2021/11/15 06:47:10;;;;;;;58.37;36.53;;;;;;;6.03;79.10;101128.95;1752001;80;21880;-56
2021/11/15 06:49:37;;;;;;;53.97;33.90;;;;;;;6.03;79.12;101132.51;1748638;80;21089;-57
2021/11/15 06:52:05;;;;;;;46.97;31.10;;;;;;;6.06;79.04;101131.58;1754972;80;21128;-56
2021/11/15 06:54:31;;;;;;;47.60;30.50;;;;;;;6.07;78.95;101134.69;1753061;80;21537;-57
2021/11/15 06:56:57;;;;;;;52.17;32.97;;;;;;;6.05;78.91;101137.37;1753457;80;21045;-55
2021/11/15 06:59:24;;;;;;;47.63;31.20;;;;;;;6.08;78.93;101137.80;1747510;80;21117;-57
2021/11/15 07:01:50;;;;;;;52.43;34.13;;;;;;;6.10;78.69;101144.03;1752418;80;21140;-57
2021/11/15 07:04:17;;;;;;;58.00;36.57;;;;;;;6.08;78.70;101143.15;1748982;79;21177;-56
2021/11/15 07:06:43;;;;;;;56.87;36.87;;;;;;;6.10;78.60;101147.16;1748444;79;21429;-55
2021/11/15 07:09:10;;;;;;;59.23;36.70;;;;;;;6.10;78.51;101148.48;1753385;80;21073;-55
2021/11/15 07:11:38;;;;;;;61.00;34.23;;;;;;;6.08;78.47;101152.51;1751631;80;21042;-56
2021/11/15 07:14:06;;;;;;;53.47;34.13;;;;;;;6.07;78.36;101162.31;1756114;80;20973;-55
2021/11/15 07:16:32;;;;;;;46.83;29.93;;;;;;;6.06;78.26;101165.87;1763076;80;21138;-54
2021/11/15 07:18:59;;;;;;;55.00;34.27;;;;;;;6.06;78.19;101162.31;1760108;80;20946;-56
2021/11/15 07:21:25;;;;;;;45.77;30.43;;;;;;;6.05;77.95;101166.77;1761298;80;20999;-56
2021/11/15 07:23:51;;;;;;;50.53;30.90;;;;;;;6.03;77.97;101167.70;1762934;80;20930;-56
2021/11/15 07:26:19;;;;;;;48.30;31.07;;;;;;;6.06;77.88;101170.33;1757474;80;20907;-55
2021/11/15 07:28:45;;;;;;;51.43;31.27;;;;;;;6.08;77.81;101172.55;1763098;80;21101;-57
2021/11/15 07:31:12;;;;;;;53.47;32.30;;;;;;;6.11;77.75;101179.67;1758846;80;20967;-57
2021/11/15 07:33:39;;;;;;;78.50;52.47;;;;;;;6.14;77.73;101180.52;1760689;80;20938;-56
2021/11/15 07:36:06;;;;;;;52.43;35.43;;;;;;;6.18;77.41;101186.74;1759540;80;21488;-56
2021/11/15 07:38:32;;;;;;;54.83;33.53;;;;;;;6.13;77.43;101186.76;1727015;81;21026;-56
2021/11/15 07:40:59;;;;;;;50.23;32.77;;;;;;;6.12;77.37;101189.02;1758755;80;21768;-56
2021/11/15 07:43:25;;;;;;;44.30;29.60;;;;;;;6.10;77.17;101187.25;1755396;80;21057;-56
2021/11/15 07:45:51;;;;;;;46.43;29.13;;;;;;;6.08;77.16;101188.59;1757006;80;21463;-56
2021/11/15 07:48:18;;;;;;;41.80;27.70;;;;;;;6.08;77.00;101192.16;1755263;80;21726;-55
2021/11/15 07:50:44;;;;;;;47.10;31.83;;;;;;;6.10;76.98;101200.17;1720361;81;21544;-56
2021/11/15 07:53:11;;;;;;;51.80;32.57;;;;;;;6.12;76.93;101209.08;1756809;80;22316;-54
2021/11/15 07:55:41;;;;;;;52.97;34.13;;;;;;;6.14;76.80;101207.25;1756649;80;21133;-55
2021/11/15 07:58:08;;;;;;;55.87;37.70;;;;;;;6.14;76.68;101205.91;1759771;80;21432;-56
2021/11/15 08:00:34;;;;;;;54.97;35.23;;;;;;;6.12;76.53;101209.08;1754378;80;21082;-56
2021/11/15 08:03:02;;;;;;;55.33;34.87;;;;;;;6.10;76.51;101208.19;1753910;80;21092;-56
2021/11/15 08:05:28;;;;;;;56.03;34.37;;;;;;;6.07;76.50;101217.11;1753919;80;21579;-56
2021/11/15 08:07:55;;;;;;;52.07;30.60;;;;;;;6.08;76.49;101213.98;1755572;80;21045;-57
2021/11/15 08:10:23;;;;;;;46.13;29.10;;;;;;;6.09;76.47;101215.77;1721140;81;21047;-56
2021/11/15 08:12:53;;;;;;;38.63;27.13;;;;;;;6.15;76.42;101218.84;1724353;81;20961;-56
2021/11/15 08:15:21;;;;;;;48.75;29.07;;;;;;;6.17;76.23;101221.06;1723479;82;21034;-56
2021/11/15 08:17:51;;;;;;;42.37;27.10;;;;;;;6.20;76.14;101221.05;1709033;82;21138;-56
2021/11/15 08:20:26;;;;;;;40.73;26.57;;;;;;;6.23;75.50;101226.35;1693943;83;21086;-56
2021/11/15 08:22:57;;;;;;;42.77;28.50;;;;;;;6.22;75.34;101228.59;1702425;82;21077;-54
2021/11/15 08:25:53;;;;;;;45.73;28.47;;;;;;;6.18;75.05;101234.88;1705357;83;21113;-55
2021/11/15 08:28:20;;;;;;;38.45;23.98;;;;;;;6.14;74.99;101231.31;1703491;83;21062;-56
2021/11/15 08:30:46;;;;;;;38.40;25.60;;;;;;;6.13;74.89;101236.22;1705698;83;21139;-57
2021/11/15 08:33:13;;;;;;;39.57;24.90;;;;;;;6.14;74.55;101235.77;1705084;83;21531;-57
2021/11/15 08:35:40;;;;;;;42.37;27.13;;;;;;;6.14;74.59;101240.67;1704011;83;21522;-56
2021/11/15 08:38:18;;;;;;;33.83;23.47;;;;;;;6.18;74.53;101235.76;1706817;83;21085;-57
2021/11/15 08:40:49;;;;;;;38.80;24.93;;;;;;;6.25;74.42;101245.95;1707774;83;21140;-56
2021/11/15 08:43:18;;;;;;;41.17;27.83;;;;;;;6.29;73.95;101249.06;1710401;83;21130;-57
2021/11/15 08:45:44;;;;;;;44.83;28.15;;;;;;;6.30;73.84;101246.34;1708577;83;22670;-57
2021/11/15 08:48:11;;;;;;;45.00;27.90;;;;;;;6.34;73.79;101240.09;1708466;83;21072;-57
2021/11/15 08:50:37;;;;;;;40.97;26.10;;;;;;;6.38;73.63;101243.17;1707915;83;21484;-56
2021/11/15 08:53:04;;;;;;;38.80;22.97;;;;;;;6.42;73.34;101250.28;1702175;83;21145;-55
2021/11/15 08:55:33;;;;;;;37.70;25.67;;;;;;;6.47;73.23;101258.26;1707252;83;21069;-57
2021/11/15 08:57:59;;;;;;;36.93;25.17;;;;;;;6.50;72.93;101251.56;1705412;82;21077;-55
2021/11/15 09:00:27;;;;;;;33.10;23.07;;;;;;;6.51;72.83;101254.67;1706411;83;21103;-55
2021/11/15 09:02:54;;;;;;;31.93;23.10;;;;;;;6.53;71.78;101257.34;1699760;83;22306;-55
2021/11/15 09:05:20;;;;;;;32.53;23.53;;;;;;;6.45;71.28;101258.30;1709938;83;21383;-55
2021/11/15 09:07:47;;;;;;;38.30;25.07;;;;;;;6.41;70.92;101254.30;1706752;82;21393;-56
2021/11/15 09:10:15;;;;;;;37.20;26.07;;;;;;;6.34;70.83;101257.48;1702031;83;21074;-55
2021/11/15 09:12:44;;;;;;;35.87;24.43;;;;;;;6.30;70.94;101252.14;1708672;83;21046;-55
2021/11/15 09:15:13;;;;;;;41.77;27.37;;;;;;;6.32;70.97;101255.70;1705066;83;20978;-55
2021/11/15 09:17:41;;;;;;;37.73;23.00;;;;;;;6.35;70.89;101255.25;1700865;83;21182;-55
2021/11/15 09:20:09;;;;;;;36.30;24.77;;;;;;;6.38;71.01;101255.69;1696544;82;21686;-55
2021/11/15 09:22:37;;;;;;;37.50;23.93;;;;;;;6.41;70.93;101255.64;1693123;82;21136;-56
2021/11/15 09:25:04;;;;;;;38.67;26.37;;;;;;;6.43;70.60;101248.50;1693652;83;21058;-55
2021/11/15 09:27:31;;;;;;;34.93;24.57;;;;;;;6.43;70.50;101257.41;1695759;83;21491;-56
2021/11/15 09:29:59;;;;;;;35.17;23.40;;;;;;;6.48;70.53;101250.67;1691377;83;21097;-55
2021/11/15 09:32:26;;;;;;;33.47;23.17;;;;;;;6.53;70.35;101250.21;1698064;83;21406;-55
2021/11/15 09:34:53;;;;;;;33.67;22.20;;;;;;;6.56;69.24;101250.61;1753562;80;21551;-56
2021/11/15 09:37:20;;;;;;;36.50;25.17;;;;;;;6.54;68.36;101256.45;1759570;80;21665;-56
2021/11/15 09:39:48;;;;;;;38.77;25.40;;;;;;;6.48;68.40;101247.11;1750682;80;21117;-55
2021/11/15 09:42:15;;;;;;;34.20;25.80;;;;;;;6.48;68.74;101252.02;1753958;80;21105;-55
2021/11/15 09:44:42;;;;;;;34.97;23.73;;;;;;;6.53;68.76;101246.20;1758235;80;21505;-55
2021/11/15 09:47:09;;;;;;;41.98;26.33;;;;;;;6.58;68.32;101243.02;1699556;82;20917;-55
2021/11/15 09:49:36;;;;;;;40.90;26.23;;;;;;;6.58;67.87;101243.02;1751692;80;21428;-56
2021/11/15 09:52:05;;;;;;;44.07;28.30;;;;;;;6.57;67.89;101247.04;1755324;80;21396;-56
2021/11/15 09:54:31;;;;;;;41.00;27.43;;;;;;;6.58;67.70;101256.40;1747972;80;21034;-56
2021/11/15 09:56:57;;;;;;;31.67;22.87;;;;;;;6.56;67.53;101255.52;1759254;80;21021;-55
2021/11/15 09:59:27;;;;;;;37.80;25.67;;;;;;;6.51;66.94;101257.35;1750921;80;20907;-55
2021/11/15 10:01:52;;;;;;;39.33;24.30;;;;;;;6.45;66.82;101256.96;1750872;80;20924;-56
2021/11/15 10:04:19;;;;;;;44.00;26.50;;;;;;;6.42;67.04;101267.67;1755103;79;21390;-56
2021/11/15 10:06:46;;;;;;;43.57;27.57;;;;;;;6.44;67.42;101266.33;1750663;80;20907;-56
2021/11/15 10:09:13;;;;;;;41.20;26.60;;;;;;;6.50;67.66;101264.94;1755462;80;22295;-55
2021/11/15 10:11:48;;;;;;;41.53;26.65;;;;;;;6.55;67.87;101263.58;1758076;80;21397;-55
2021/11/15 10:14:15;;;;;;;44.97;26.73;;;;;;;6.59;67.93;101271.55;1756086;80;20935;-55
2021/11/15 10:17:01;;;;;;;36.53;25.83;;;;;;;6.62;67.76;101275.55;1757547;80;20950;-56
2021/11/15 10:19:28;;;;;;;37.23;26.25;;;;;;;6.59;67.27;101274.23;1754156;80;26467;-55
2021/11/15 10:21:59;;;;;;;26.33;20.40;;;;;;;6.55;66.94;101280.48;1695568;82;20958;-55
2021/11/15 10:24:32;;;;;;;36.33;26.03;;;;;;;6.51;66.52;101292.58;1754833;80;21769;-55
2021/11/15 10:27:06;;;;;;;33.70;24.00;;;;;;;6.49;66.53;101295.25;1756217;80;20989;-57
2021/11/15 10:29:42;;;;;;;37.38;22.27;;;;;;;6.43;66.65;101288.17;1754821;80;20978;-56
2021/11/15 10:32:16;;;;;;;35.60;23.47;;;;;;;6.38;66.97;101297.14;1750580;80;21148;-55
2021/11/15 10:34:45;;;;;;;29.92;20.85;;;;;;;6.38;67.20;101295.33;1748235;80;24746;-56
2021/11/15 10:37:19;;;;;;;32.67;23.03;;;;;;;6.40;67.27;101297.55;1752334;79;21097;-54
2021/11/15 10:40:06;;;;;;;32.42;23.38;;;;;;;6.43;67.42;101293.97;1753059;80;20883;-55
2021/11/15 10:42:35;;;;;;;30.97;23.17;;;;;;;6.49;67.43;101305.06;1699141;82;21453;-56
2021/11/15 10:45:06;;;;;;;36.40;25.60;;;;;;;6.56;67.46;101306.34;1755042;80;20954;-56
2021/11/15 10:47:49;;;;;;;35.87;24.77;;;;;;;6.60;67.29;101305.89;1754225;80;21497;-56
2021/11/15 10:50:24;;;;;;;39.50;24.43;;;;;;;6.59;67.28;101310.80;1758743;80;20875;-55
2021/11/15 10:53:08;;;;;;;39.67;26.10;;;;;;;6.53;67.16;101321.11;1753803;80;21552;-55
2021/11/15 10:55:46;;;;;;;39.07;22.10;;;;;;;6.45;67.43;101321.61;1755206;80;20915;-56
2021/11/15 10:58:16;;;;;;;28.73;20.57;;;;;;;6.32;67.65;101331.48;1749898;80;20891;-55
2021/11/15 11:00:51;;;;;;;34.20;22.33;;;;;;;6.22;67.70;101330.19;1755637;80;21172;-56
2021/11/15 11:03:18;;;;;;;37.87;24.13;;;;;;;6.12;68.01;101332.05;1753175;80;21105;-55
2021/11/15 11:05:46;;;;;;;34.13;23.53;;;;;;;6.12;68.33;101335.17;1750890;80;20970;-55
2021/11/15 11:08:17;;;;;;;33.57;21.80;;;;;;;6.15;68.36;101336.47;1751757;79;21067;-56
2021/11/15 11:11:03;;;;;;;34.97;23.77;;;;;;;6.15;68.37;101342.71;1752418;80;22383;-55
2021/11/15 11:13:53;;;;;;;;;;;;;;;6.09;68.40;101346.77;1756164;80;21072;-55
2021/11/15 11:16:25;;;;;;;30.07;19.00;;;;;;;5.97;68.38;101345.47;1755629;80;21086;-54
2021/11/15 11:18:55;;;;;;;30.67;19.00;;;;;;;5.82;68.54;101352.18;1724676;80;21086;-56
2021/11/15 11:21:47;;;;;;;27.67;20.30;;;;;;;5.70;68.79;101353.09;1734066;80;21031;-54